M I D A S
Marine Information and Data Acquisition System
Tripno 1267 of the Zeeleeuw from 2007-05-04 07:37:53 to 2007-05-04 14:16:29
Back to CruiseResearch ActivitiesStationsMapUnderway DataData graphs

EquipmentUnitsComment
TimeDGPSUTC
LatitudeDGPSDM.mWGS84
LongitudeDGPSDM.mWGS84
HeadingGyrodeg 
SOGDGPSknotsSpeed over ground
COGDGPSdegCourse over ground
DepthEcho soundermeters200 kHz
Missing or incorrect values are displayed as -999
Navigation data collected by the RV Zeeleeuw from 2007-05-04 06:54:01 to 2007-05-04 14:28:36
                                                                                    Next 1000 lines
Time Latitude Longitude Heading SOG COG Depth
2007-05-04 06:54:11 51°13.581 2°56.133 126.2 0.1 89 -999
2007-05-04 06:54:16 51°13.581 2°56.133 125.2 0.1 264 -999
2007-05-04 06:54:21 51°13.581 2°56.133 124.3 0.1 15 -999
2007-05-04 06:54:26 51°13.581 2°56.133 124.1 0.1 190 -999
2007-05-04 06:54:32 51°13.581 2°56.133 124.2 0.1 67 -999
2007-05-04 06:54:36 51°13.58 2°56.133 124.7 0.1 185 -999
2007-05-04 06:54:41 51°13.58 2°56.133 125.2 -999 274 -999
2007-05-04 06:54:46 51°13.58 2°56.133 125.8 -999 267 -999
2007-05-04 06:54:51 51°13.58 2°56.133 126.5 -999 357 -999
2007-05-04 06:54:56 51°13.58 2°56.133 127.1 -999 288 -999
2007-05-04 06:55:01 51°13.581 2°56.133 127.6 -999 333 -999
2007-05-04 06:55:06 51°13.581 2°56.133 127.7 -999 256 -999
2007-05-04 06:55:11 51°13.581 2°56.133 127.7 -999 122 -999
2007-05-04 06:55:16 51°13.581 2°56.133 127.7 -999 192 -999
2007-05-04 06:55:21 51°13.581 2°56.133 127.6 -999 321 -999
2007-05-04 06:55:26 51°13.581 2°56.133 127.5 -999 52 -999
2007-05-04 06:55:32 51°13.581 2°56.133 127.4 -999 22 -999
2007-05-04 06:55:36 51°13.581 2°56.133 127.2 -999 15 -999
2007-05-04 06:55:42 51°13.581 2°56.133 127 -999 25 -999
2007-05-04 06:55:46 51°13.581 2°56.133 127 -999 55 -999
2007-05-04 06:55:51 51°13.581 2°56.134 126.5 -999 89 -999
2007-05-04 06:55:56 51°13.581 2°56.134 125.8 -999 87 -999
2007-05-04 06:56:01 51°13.581 2°56.134 124.8 -999 201 -999
2007-05-04 06:56:06 51°13.58 2°56.133 123.8 -999 197 -999
2007-05-04 06:56:11 51°13.58 2°56.133 122.7 0.1 188 -999
2007-05-04 06:56:16 51°13.58 2°56.133 121.5 -999 182 -999
2007-05-04 06:56:21 51°13.58 2°56.133 120.1 0.1 190 -999
2007-05-04 06:56:26 51°13.58 2°56.133 118.9 -999 212 -999
2007-05-04 06:56:32 51°13.58 2°56.133 117.9 0.1 202 -999
2007-05-04 06:56:36 51°13.58 2°56.133 117.3 0.1 237 -999
2007-05-04 06:56:41 51°13.58 2°56.133 117 0.1 258 -999
2007-05-04 06:56:46 51°13.58 2°56.132 116.8 0.2 276 -999
2007-05-04 06:56:51 51°13.58 2°56.132 116.7 0.4 278 -999
2007-05-04 06:56:56 51°13.581 2°56.13 117.1 0.7 289 -999
2007-05-04 06:57:01 51°13.581 2°56.128 117.8 1.1 289 -999
2007-05-04 06:57:06 51°13.582 2°56.125 118.3 1.4 292 -999
2007-05-04 06:57:11 51°13.583 2°56.121 118.6 1.7 294 -999
2007-05-04 06:57:16 51°13.584 2°56.117 118.9 1.9 294 -999
2007-05-04 06:57:21 51°13.585 2°56.113 119 2 296 -999
2007-05-04 06:57:26 51°13.587 2°56.109 119 2.1 296 -999
2007-05-04 06:57:32 51°13.588 2°56.104 118.9 2.2 296 -999
2007-05-04 06:57:36 51°13.589 2°56.1 118.9 2.3 295 -999
2007-05-04 06:57:42 51°13.591 2°56.094 118.9 2.4 296 -999
2007-05-04 06:57:46 51°13.592 2°56.09 118.9 2.5 296 -999
2007-05-04 06:57:51 51°13.594 2°56.085 118.9 2.7 296 -999
2007-05-04 06:57:56 51°13.596 2°56.079 118.7 2.8 295 -999
2007-05-04 06:58:01 51°13.597 2°56.074 118.6 2.8 295 -999
2007-05-04 06:58:06 51°13.599 2°56.068 118.5 2.9 295 -999
2007-05-04 06:58:11 51°13.601 2°56.062 118.5 3 294 -999
2007-05-04 06:58:16 51°13.602 2°56.055 118.6 3.1 294 -999
2007-05-04 06:58:21 51°13.604 2°56.049 119.1 3.1 294 -999
2007-05-04 06:58:26 51°13.606 2°56.043 119.6 3.1 294 -999
2007-05-04 06:58:32 51°13.608 2°56.035 120.2 3.1 294 -999
2007-05-04 06:58:36 51°13.609 2°56.031 121 3 294 -999
2007-05-04 06:58:42 51°13.611 2°56.024 121.9 2.9 295 -999
2007-05-04 06:58:46 51°13.613 2°56.019 123 2.9 294 -999
2007-05-04 06:58:51 51°13.614 2°56.013 124.1 2.8 296 -999
2007-05-04 06:58:57 51°13.616 2°56.007 125.4 2.7 297 -999
2007-05-04 06:59:01 51°13.618 2°56.003 126.2 2.6 298 -999
2007-05-04 06:59:06 51°13.619 2°55.998 127.1 2.4 298 -999
2007-05-04 06:59:11 51°13.621 2°55.994 127.9 2.3 298 -999
2007-05-04 06:59:16 51°13.622 2°55.99 128.7 2.1 299 -999
2007-05-04 06:59:21 51°13.623 2°55.986 129.1 1.9 299 -999
2007-05-04 06:59:26 51°13.624 2°55.983 128.8 1.6 299 -999
2007-05-04 06:59:32 51°13.625 2°55.98 128.1 1.2 297 -999
2007-05-04 06:59:36 51°13.626 2°55.979 128 1.1 296 -999
2007-05-04 06:59:42 51°13.626 2°55.976 128.3 1.2 298 -999
2007-05-04 06:59:46 51°13.627 2°55.974 128.9 1.4 297 -999
2007-05-04 06:59:51 51°13.628 2°55.971 129.8 1.7 301 -999
2007-05-04 06:59:57 51°13.63 2°55.966 130.2 2.1 301 -999
2007-05-04 07:00:01 51°13.632 2°55.962 130.2 2.4 303 -999
2007-05-04 07:00:07 51°13.634 2°55.956 130.1 2.7 304 -999
2007-05-04 07:00:11 51°13.636 2°55.952 130 2.9 304 -999
2007-05-04 07:00:16 51°13.638 2°55.947 130 2.9 303 -999
2007-05-04 07:00:21 51°13.64 2°55.942 130.1 2.8 304 -999
2007-05-04 07:00:26 51°13.643 2°55.937 130.1 2.7 303 -999
2007-05-04 07:00:31 51°13.644 2°55.932 129.7 2.4 304 -999
2007-05-04 07:00:36 51°13.646 2°55.928 128.5 2 302 -999
2007-05-04 07:00:41 51°13.647 2°55.925 126.9 1.5 301 -999
2007-05-04 07:00:46 51°13.647 2°55.924 124.5 0.9 298 -999
2007-05-04 07:00:51 51°13.647 2°55.923 122 0.5 289 -999
2007-05-04 07:00:56 51°13.648 2°55.922 119.6 0.2 293 -999
2007-05-04 07:01:01 51°13.647 2°55.922 116.8 0.1 196 -999
2007-05-04 07:01:06 51°13.647 2°55.923 114.2 0.3 122 -999
2007-05-04 07:01:11 51°13.647 2°55.923 112.1 0.4 122 -999
2007-05-04 07:01:16 51°13.647 2°55.925 110.6 0.7 111 -999
2007-05-04 07:01:21 51°13.646 2°55.926 109.5 0.8 115 -999
2007-05-04 07:01:26 51°13.646 2°55.929 108.6 1 110 -999
2007-05-04 07:01:32 51°13.645 2°55.932 107.7 1.2 113 -999
2007-05-04 07:01:36 51°13.644 2°55.934 106.6 1.3 111 -999
2007-05-04 07:01:41 51°13.644 2°55.936 105.4 1.3 112 -999
2007-05-04 07:01:46 51°13.643 2°55.939 103.9 1.4 109 -999
2007-05-04 07:01:51 51°13.642 2°55.942 102.7 1.5 110 -999
2007-05-04 07:01:57 51°13.642 2°55.946 102 1.6 106 -999
2007-05-04 07:02:01 51°13.641 2°55.949 101.5 1.7 107 -999
2007-05-04 07:02:06 51°13.641 2°55.953 100.8 1.7 104 -999
2007-05-04 07:02:11 51°13.64 2°55.956 100.3 1.7 104 -999
2007-05-04 07:02:16 51°13.64 2°55.96 99.8 1.7 102 -999
2007-05-04 07:02:21 51°13.639 2°55.964 99.4 1.7 101 -999
2007-05-04 07:02:26 51°13.639 2°55.968 99.1 1.8 100 -999
2007-05-04 07:02:31 51°13.638 2°55.972 99.3 2.1 98 -999
2007-05-04 07:02:36 51°13.638 2°55.977 99.4 2.1 98 -999
2007-05-04 07:02:42 51°13.637 2°55.982 99.6 2.1 99 -999
2007-05-04 07:02:46 51°13.637 2°55.986 99.7 2 97 -999
2007-05-04 07:02:51 51°13.637 2°55.99 100.1 1.9 99 -999
2007-05-04 07:02:57 51°13.636 2°55.995 100.8 1.8 98 -999
2007-05-04 07:03:01 51°13.636 2°55.998 101.6 1.7 100 -999
2007-05-04 07:03:07 51°13.635 2°56.002 102.3 1.7 100 -999
2007-05-04 07:03:11 51°13.635 2°56.005 103.1 1.7 102 -999
2007-05-04 07:03:16 51°13.634 2°56.008 103.8 1.6 102 -999
2007-05-04 07:03:21 51°13.634 2°56.012 105 1.5 103 -999
2007-05-04 07:03:26 51°13.633 2°56.015 106.7 1.4 103 -999
2007-05-04 07:03:31 51°13.633 2°56.017 108.8 1.3 108 -999
2007-05-04 07:03:36 51°13.633 2°56.02 111 1 105 -999
2007-05-04 07:03:41 51°13.632 2°56.021 113.2 0.8 109 -999
2007-05-04 07:03:46 51°13.632 2°56.022 114.8 0.5 111 -999
2007-05-04 07:03:51 51°13.632 2°56.023 116.1 0.4 114 -999
2007-05-04 07:03:56 51°13.632 2°56.024 116.5 0.4 115 -999
2007-05-04 07:04:01 51°13.632 2°56.024 116.1 0.2 86 -999
2007-05-04 07:04:07 51°13.632 2°56.025 114.8 0.2 32 -999
2007-05-04 07:04:11 51°13.632 2°56.025 114.2 0.2 21 -999
2007-05-04 07:04:16 51°13.632 2°56.025 114.4 -999 24 -999
2007-05-04 07:04:21 51°13.632 2°56.025 115.2 0.1 133 -999
2007-05-04 07:04:26 51°13.632 2°56.025 115.4 0.1 69 -999
2007-05-04 07:04:32 51°13.632 2°56.025 115.4 0.1 335 -999
2007-05-04 07:04:36 51°13.632 2°56.025 115.4 -999 313 -999
2007-05-04 07:04:41 51°13.632 2°56.025 116.2 -999 57 -999
2007-05-04 07:04:46 51°13.632 2°56.025 116.8 0.1 138 -999
2007-05-04 07:04:51 51°13.632 2°56.025 117 0.1 19 -999
2007-05-04 07:04:56 51°13.632 2°56.025 117.4 -999 19 -999
2007-05-04 07:05:01 51°13.632 2°56.025 118.1 0.1 56 -999
2007-05-04 07:05:06 51°13.632 2°56.025 118.9 -999 50 -999
2007-05-04 07:05:11 51°13.633 2°56.025 119.9 0.1 9 -999
2007-05-04 07:05:16 51°13.633 2°56.025 121.2 0.1 5 -999
2007-05-04 07:05:21 51°13.633 2°56.025 122.3 0.1 16 -999
2007-05-04 07:05:26 51°13.633 2°56.025 123.4 0.1 3 -999
2007-05-04 07:05:31 51°13.633 2°56.025 124.6 0.1 4 -999
2007-05-04 07:05:36 51°13.633 2°56.025 125.6 0.1 13 -999
2007-05-04 07:05:41 51°13.633 2°56.025 126.8 0.1 6 -999
2007-05-04 07:05:46 51°13.633 2°56.025 127.8 0.1 6 -999
2007-05-04 07:05:51 51°13.633 2°56.025 128.6 0.1 14 -999
2007-05-04 07:05:56 51°13.633 2°56.025 129.3 0.1 254 -999
2007-05-04 07:06:01 51°13.633 2°56.025 129.9 0.1 227 -999
2007-05-04 07:06:06 51°13.633 2°56.025 130.4 0.1 229 -999
2007-05-04 07:06:12 51°13.633 2°56.025 130.7 0.1 239 -999
2007-05-04 07:06:16 51°13.633 2°56.025 131.1 0.1 235 -999
2007-05-04 07:06:21 51°13.633 2°56.025 131.3 0.1 238 -999
2007-05-04 07:06:26 51°13.633 2°56.024 131.5 0.1 269 -999
2007-05-04 07:06:31 51°13.633 2°56.024 131.6 -999 138 -999
2007-05-04 07:06:37 51°13.633 2°56.024 131.6 -999 180 -999
2007-05-04 07:06:41 51°13.633 2°56.024 131.6 -999 41 -999
2007-05-04 07:06:46 51°13.633 2°56.024 131.4 -999 82 -999
2007-05-04 07:06:51 51°13.633 2°56.024 131.3 -999 55 -999
2007-05-04 07:06:56 51°13.634 2°56.024 131.3 -999 287 -999
2007-05-04 07:07:01 51°13.633 2°56.024 131.5 0.1 238 -999
2007-05-04 07:07:06 51°13.633 2°56.024 132 0.1 235 -999
2007-05-04 07:07:12 51°13.633 2°56.024 132.2 0.1 218 -999
2007-05-04 07:07:16 51°13.633 2°56.024 132.3 -999 228 -999
2007-05-04 07:07:21 51°13.633 2°56.024 132.3 -999 347 -999
2007-05-04 07:07:26 51°13.634 2°56.024 131.8 0.1 70 -999
2007-05-04 07:07:31 51°13.634 2°56.024 131.3 0.1 38 -999
2007-05-04 07:07:37 51°13.634 2°56.025 130.8 0.1 10 -999
2007-05-04 07:07:41 51°13.634 2°56.025 130.7 -999 32 -999
2007-05-04 07:07:46 51°13.634 2°56.025 130.6 -999 65 -999
2007-05-04 07:07:51 51°13.634 2°56.025 130.6 -999 91 -999
2007-05-04 07:07:56 51°13.634 2°56.025 130.6 -999 31 -999
2007-05-04 07:08:01 51°13.634 2°56.025 130.6 -999 71 -999
2007-05-04 07:08:06 51°13.634 2°56.024 130.5 -999 267 -999
2007-05-04 07:08:12 51°13.634 2°56.024 130.5 -999 176 -999
2007-05-04 07:08:16 51°13.634 2°56.024 130.5 -999 261 -999
2007-05-04 07:08:22 51°13.634 2°56.024 130.5 -999 86 -999
2007-05-04 07:08:26 51°13.634 2°56.024 130.5 -999 182 -999
2007-05-04 07:08:31 51°13.634 2°56.024 130.5 -999 99 -999
2007-05-04 07:08:37 51°13.634 2°56.024 130.5 -999 101 -999
2007-05-04 07:08:41 51°13.634 2°56.024 130.5 -999 272 -999
2007-05-04 07:08:46 51°13.634 2°56.024 130.5 -999 269 -999
2007-05-04 07:08:51 51°13.634 2°56.024 130.5 -999 87 -999
2007-05-04 07:08:56 51°13.634 2°56.024 130.5 -999 276 -999
2007-05-04 07:09:01 51°13.634 2°56.025 130.5 -999 194 -999
2007-05-04 07:09:06 51°13.634 2°56.025 130.5 -999 235 -999
2007-05-04 07:09:12 51°13.634 2°56.025 130.5 -999 329 -999
2007-05-04 07:09:16 51°13.634 2°56.025 130.5 -999 249 -999
2007-05-04 07:09:22 51°13.634 2°56.025 130.5 -999 147 -999
2007-05-04 07:09:26 51°13.634 2°56.025 130.5 -999 291 -999
2007-05-04 07:09:31 51°13.634 2°56.025 130.5 -999 203 -999
2007-05-04 07:09:37 51°13.634 2°56.025 130.5 -999 253 -999
2007-05-04 07:09:41 51°13.634 2°56.025 130.5 -999 86 -999
2007-05-04 07:09:46 51°13.633 2°56.025 130.5 -999 236 -999
2007-05-04 07:09:51 51°13.633 2°56.025 130.5 -999 276 -999
2007-05-04 07:09:56 51°13.633 2°56.025 130.5 -999 190 -999
2007-05-04 07:10:01 51°13.633 2°56.025 130.5 -999 184 -999
2007-05-04 07:10:06 51°13.633 2°56.025 130.5 -999 122 -999
2007-05-04 07:10:11 51°13.634 2°56.025 130.5 -999 76 -999
2007-05-04 07:10:16 51°13.634 2°56.025 130.5 -999 129 -999
2007-05-04 07:10:22 51°13.634 2°56.025 130.5 -999 167 -999
2007-05-04 07:10:26 51°13.634 2°56.025 130.5 -999 8 -999
2007-05-04 07:10:31 51°13.634 2°56.025 130.5 -999 224 -999
2007-05-04 07:10:37 51°13.634 2°56.025 130.5 -999 268 -999
2007-05-04 07:10:41 51°13.634 2°56.025 130.5 -999 277 -999
2007-05-04 07:10:46 51°13.634 2°56.025 130.5 -999 217 -999
2007-05-04 07:10:51 51°13.634 2°56.025 130.5 -999 228 -999
2007-05-04 07:10:56 51°13.634 2°56.025 130.5 -999 97 -999
2007-05-04 07:11:01 51°13.634 2°56.025 130.5 -999 162 7.5
2007-05-04 07:11:06 51°13.634 2°56.025 130.5 -999 167 7.5
2007-05-04 07:11:11 51°13.634 2°56.025 130.5 -999 115 7.4
2007-05-04 07:11:16 51°13.634 2°56.025 130.5 -999 313 7.5
2007-05-04 07:11:21 51°13.634 2°56.025 130.5 -999 273 7.5
2007-05-04 07:11:26 51°13.633 2°56.025 130.5 -999 171 7.4
2007-05-04 07:11:31 51°13.633 2°56.025 130.5 -999 138 7.5
2007-05-04 07:11:36 51°13.633 2°56.024 130.5 -999 157 7.5
2007-05-04 07:11:41 51°13.633 2°56.024 130.5 -999 290 7.5
2007-05-04 07:11:46 51°13.633 2°56.024 130.5 -999 132 7.5
2007-05-04 07:11:51 51°13.633 2°56.024 130.5 -999 133 5.5
2007-05-04 07:11:56 51°13.633 2°56.024 130.5 -999 235 7.5
2007-05-04 07:12:01 51°13.633 2°56.024 130.5 -999 282 7.5
2007-05-04 07:12:06 51°13.633 2°56.024 130.5 -999 239 7.5
2007-05-04 07:12:11 51°13.633 2°56.024 130.5 -999 254 7.5
2007-05-04 07:12:16 51°13.633 2°56.024 130.5 -999 219 7.5
2007-05-04 07:12:21 51°13.633 2°56.024 130.5 -999 126 7.5
2007-05-04 07:12:26 51°13.633 2°56.024 130.5 -999 69 5.5
2007-05-04 07:12:31 51°13.633 2°56.024 130.5 -999 214 7.5
2007-05-04 07:12:36 51°13.633 2°56.024 130.5 -999 200 7.5
2007-05-04 07:12:41 51°13.633 2°56.024 130.5 -999 202 7.5
2007-05-04 07:12:46 51°13.633 2°56.024 130.5 -999 56 7.5
2007-05-04 07:12:51 51°13.633 2°56.024 130.5 -999 45 5.5
2007-05-04 07:12:56 51°13.633 2°56.024 130.5 -999 215 7.5
2007-05-04 07:13:01 51°13.633 2°56.024 130.5 -999 211 5.5
2007-05-04 07:13:06 51°13.633 2°56.024 130.5 -999 228 7.5
2007-05-04 07:13:11 51°13.633 2°56.023 130.5 -999 172 7.5
2007-05-04 07:13:16 51°13.633 2°56.023 130.5 -999 10 7.5
2007-05-04 07:13:21 51°13.633 2°56.023 130.5 -999 295 7.6
2007-05-04 07:13:26 51°13.633 2°56.023 130.5 -999 173 7.6
2007-05-04 07:13:31 51°13.633 2°56.023 130.5 -999 220 7.6
2007-05-04 07:13:36 51°13.633 2°56.024 130.5 -999 332 5.6
2007-05-04 07:13:41 51°13.633 2°56.024 130.5 -999 196 7.5
2007-05-04 07:13:46 51°13.633 2°56.024 130.5 -999 215 7.5
2007-05-04 07:13:51 51°13.633 2°56.024 130.5 -999 167 7.5
2007-05-04 07:13:56 51°13.633 2°56.024 130.5 -999 18 7.5
2007-05-04 07:14:01 51°13.633 2°56.024 130.5 -999 191 7.5
2007-05-04 07:14:06 51°13.633 2°56.024 130.5 -999 31 7.5
2007-05-04 07:14:11 51°13.633 2°56.024 130.5 -999 358 7.5
2007-05-04 07:14:16 51°13.633 2°56.024 130.5 -999 201 7.5
2007-05-04 07:14:21 51°13.633 2°56.024 130.5 -999 346 7.5
2007-05-04 07:14:26 51°13.633 2°56.024 130.5 -999 204 7.6
2007-05-04 07:14:31 51°13.633 2°56.024 130.5 -999 344 5.6
2007-05-04 07:14:36 51°13.633 2°56.024 130.5 -999 260 7.5
2007-05-04 07:14:41 51°13.633 2°56.024 130.5 0.1 208 7.6
2007-05-04 07:14:46 51°13.633 2°56.024 130.5 -999 221 7.6
2007-05-04 07:14:51 51°13.633 2°56.024 130.5 -999 212 7.6
2007-05-04 07:14:56 51°13.633 2°56.024 130.5 -999 174 7.5
2007-05-04 07:15:01 51°13.633 2°56.024 130.5 -999 278 7.5
2007-05-04 07:15:06 51°13.633 2°56.024 130.5 -999 356 5.6
2007-05-04 07:15:11 51°13.633 2°56.024 130.5 -999 61 7.6
2007-05-04 07:15:16 51°13.633 2°56.024 130.5 -999 264 7.6
2007-05-04 07:15:21 51°13.633 2°56.024 130.5 -999 77 7.6
2007-05-04 07:15:26 51°13.633 2°56.023 130.5 -999 178 7.6
2007-05-04 07:15:31 51°13.633 2°56.023 130.5 -999 230 7.5
2007-05-04 07:15:36 51°13.633 2°56.023 130.5 -999 179 7.6
2007-05-04 07:15:41 51°13.633 2°56.023 130.5 -999 229 5.6
2007-05-04 07:15:46 51°13.633 2°56.023 130.5 -999 230 7.5
2007-05-04 07:15:51 51°13.633 2°56.024 130.5 -999 163 -999
2007-05-04 07:15:56 51°13.633 2°56.024 130.5 -999 69 7.4
2007-05-04 07:16:01 51°13.633 2°56.024 130.5 -999 250 7.4
2007-05-04 07:16:06 51°13.633 2°56.024 130.5 -999 81 7.4
2007-05-04 07:16:11 51°13.633 2°56.024 130.5 -999 68 7.4
2007-05-04 07:16:16 51°13.633 2°56.024 130.5 -999 135 7.5
2007-05-04 07:16:21 51°13.633 2°56.024 130.4 -999 251 -999
2007-05-04 07:16:26 51°13.633 2°56.024 130.4 -999 76 7.5
2007-05-04 07:16:31 51°13.633 2°56.024 130.4 -999 39 7.4
2007-05-04 07:16:36 51°13.633 2°56.024 130.4 -999 3 7.4
2007-05-04 07:16:41 51°13.633 2°56.024 130.4 -999 52 7.4
2007-05-04 07:16:46 51°13.633 2°56.024 130.4 -999 252 5.5
2007-05-04 07:16:51 51°13.633 2°56.024 130.4 -999 218 7.4
2007-05-04 07:16:56 51°13.633 2°56.024 130.4 -999 216 7.5
2007-05-04 07:17:01 51°13.633 2°56.024 130.4 -999 116 7.5
2007-05-04 07:17:06 51°13.633 2°56.024 130.4 -999 231 7.4
2007-05-04 07:17:11 51°13.633 2°56.024 130.4 -999 211 7.4
2007-05-04 07:17:16 51°13.633 2°56.024 130.4 -999 212 7.4
2007-05-04 07:17:21 51°13.633 2°56.024 130.4 0.1 222 7.5
2007-05-04 07:17:26 51°13.633 2°56.024 130.3 0.1 221 7.4
2007-05-04 07:17:31 51°13.633 2°56.024 130.3 -999 43 7.4
2007-05-04 07:17:36 51°13.633 2°56.024 130.3 -999 42 5.6
2007-05-04 07:17:41 51°13.633 2°56.024 130.3 -999 255 7.4
2007-05-04 07:17:46 51°13.633 2°56.024 130.2 -999 73 5.6
2007-05-04 07:17:51 51°13.633 2°56.024 130.2 -999 31 7.4
2007-05-04 07:17:56 51°13.633 2°56.024 130.2 -999 154 7.5
2007-05-04 07:18:01 51°13.633 2°56.024 130.2 -999 132 7.5
2007-05-04 07:18:06 51°13.633 2°56.024 130.2 -999 40 7.4
2007-05-04 07:18:11 51°13.633 2°56.024 130.2 -999 42 7.4
2007-05-04 07:18:16 51°13.633 2°56.024 130.2 -999 15 7.5
2007-05-04 07:18:21 51°13.633 2°56.024 130.2 -999 24 5.6
2007-05-04 07:18:26 51°13.633 2°56.024 130.2 -999 290 7.3
2007-05-04 07:18:31 51°13.633 2°56.024 130.1 -999 222 5.5
2007-05-04 07:18:36 51°13.634 2°56.024 130 -999 214 7.4
2007-05-04 07:18:42 51°13.634 2°56.025 130 -999 198 7.4
2007-05-04 07:18:46 51°13.634 2°56.025 130 -999 247 7.5
2007-05-04 07:18:51 51°13.634 2°56.025 130 -999 216 7.4
2007-05-04 07:18:56 51°13.634 2°56.025 130 -999 159 7.4
2007-05-04 07:19:01 51°13.634 2°56.025 130 -999 355 7.5
2007-05-04 07:19:06 51°13.634 2°56.025 130 -999 221 7.4
2007-05-04 07:19:11 51°13.634 2°56.025 130 -999 160 7.4
2007-05-04 07:19:16 51°13.634 2°56.025 130 -999 270 7.5
2007-05-04 07:19:21 51°13.634 2°56.025 130 -999 204 7.4
2007-05-04 07:19:26 51°13.634 2°56.025 129.9 -999 132 5.5
2007-05-04 07:19:31 51°13.633 2°56.025 129.9 -999 245 7.4
2007-05-04 07:19:36 51°13.633 2°56.025 129.9 -999 168 5.5
2007-05-04 07:19:41 51°13.633 2°56.025 129.9 -999 32 7.4
2007-05-04 07:19:46 51°13.633 2°56.025 129.9 -999 37 7.5
2007-05-04 07:19:51 51°13.633 2°56.025 129.9 -999 42 5.5
2007-05-04 07:19:56 51°13.633 2°56.025 129.9 -999 260 7.5
2007-05-04 07:20:01 51°13.633 2°56.025 129.9 -999 41 7.4
2007-05-04 07:20:06 51°13.633 2°56.025 129.9 -999 221 7.4
2007-05-04 07:20:11 51°13.634 2°56.025 129.9 -999 218 7.4
2007-05-04 07:20:16 51°13.634 2°56.025 129.9 -999 37 5.5
2007-05-04 07:20:21 51°13.634 2°56.025 129.9 -999 227 7.5
2007-05-04 07:20:26 51°13.634 2°56.025 129.9 -999 32 5.5
2007-05-04 07:20:31 51°13.634 2°56.025 129.8 -999 29 7.4
2007-05-04 07:20:36 51°13.634 2°56.025 129.8 -999 175 5.5
2007-05-04 07:20:41 51°13.634 2°56.025 129.8 -999 29 7.5
2007-05-04 07:20:46 51°13.634 2°56.025 129.8 -999 62 7.5
2007-05-04 07:20:51 51°13.634 2°56.025 129.8 -999 30 7.4
2007-05-04 07:20:56 51°13.634 2°56.025 129.8 -999 109 7.4
2007-05-04 07:21:01 51°13.634 2°56.026 129.8 -999 115 7.7
2007-05-04 07:21:06 51°13.634 2°56.026 129.8 -999 21 7.4
2007-05-04 07:21:11 51°13.634 2°56.025 129.8 -999 175 7.4
2007-05-04 07:21:16 51°13.634 2°56.025 129.8 -999 230 7.4
2007-05-04 07:21:21 51°13.634 2°56.025 129.8 -999 124 7.4
2007-05-04 07:21:26 51°13.634 2°56.025 129.8 -999 259 7.4
2007-05-04 07:21:31 51°13.634 2°56.025 129.8 -999 131 7.4
2007-05-04 07:21:36 51°13.634 2°56.025 129.8 -999 16 7.4
2007-05-04 07:21:41 51°13.635 2°56.025 129.8 -999 4 7.3
2007-05-04 07:21:46 51°13.635 2°56.025 129.8 -999 174 7.3
2007-05-04 07:21:51 51°13.635 2°56.025 129.8 -999 242 7.7
2007-05-04 07:21:56 51°13.635 2°56.025 129.7 -999 81 7.4
2007-05-04 07:22:01 51°13.635 2°56.025 129.7 -999 334 7.4
2007-05-04 07:22:06 51°13.635 2°56.025 129.7 -999 130 7.4
2007-05-04 07:22:11 51°13.635 2°56.025 129.7 -999 165 7.3
2007-05-04 07:22:16 51°13.635 2°56.025 129.7 -999 189 7.3
2007-05-04 07:22:21 51°13.635 2°56.025 129.7 -999 17 7.3
2007-05-04 07:22:26 51°13.635 2°56.025 129.7 -999 328 5.5
2007-05-04 07:22:31 51°13.635 2°56.025 129.7 -999 292 7.4
2007-05-04 07:22:36 51°13.635 2°56.025 129.7 -999 222 7.4
2007-05-04 07:22:41 51°13.635 2°56.025 129.7 -999 140 7.3
2007-05-04 07:22:46 51°13.635 2°56.025 129.7 -999 55 7.3
2007-05-04 07:22:51 51°13.635 2°56.025 129.7 -999 27 7.5
2007-05-04 07:22:56 51°13.635 2°56.025 129.7 -999 285 7.3
2007-05-04 07:23:01 51°13.635 2°56.025 129.7 -999 225 7.3
2007-05-04 07:23:06 51°13.635 2°56.025 129.7 -999 189 7.4
2007-05-04 07:23:11 51°13.635 2°56.025 129.7 -999 161 7.4
2007-05-04 07:23:16 51°13.635 2°56.025 129.7 -999 198 7.3
2007-05-04 07:23:21 51°13.635 2°56.025 129.7 -999 135 7.3
2007-05-04 07:23:26 51°13.635 2°56.025 129.7 -999 165 7.4
2007-05-04 07:23:31 51°13.635 2°56.025 129.7 -999 93 7.5
2007-05-04 07:23:36 51°13.635 2°56.025 129.7 -999 352 7.3
2007-05-04 07:23:40 51°13.635 2°56.025 129.7 -999 326 7.4
2007-05-04 07:23:45 51°13.635 2°56.025 129.7 -999 246 7.4
2007-05-04 07:23:50 51°13.635 2°56.025 129.7 -999 80 7.3
2007-05-04 07:23:56 51°13.635 2°56.025 129.7 -999 162 7.5
2007-05-04 07:24:01 51°13.635 2°56.025 129.6 -999 343 7.4
2007-05-04 07:24:06 51°13.635 2°56.025 129.6 -999 324 -999
2007-05-04 07:24:11 51°13.635 2°56.025 129.6 -999 62 7.4
2007-05-04 07:24:16 51°13.635 2°56.025 129.6 -999 180 7.4
2007-05-04 07:24:21 51°13.635 2°56.025 129.6 -999 1 7.4
2007-05-04 07:24:26 51°13.635 2°56.025 129.6 -999 154 7.5
2007-05-04 07:24:31 51°13.635 2°56.025 129.6 -999 335 7.4
2007-05-04 07:24:36 51°13.635 2°56.025 129.6 -999 38 7.5
2007-05-04 07:24:41 51°13.635 2°56.025 129.6 -999 321 7.4
2007-05-04 07:24:46 51°13.635 2°56.025 129.7 -999 172 7.5
2007-05-04 07:24:51 51°13.635 2°56.025 129.7 -999 175 5.5
2007-05-04 07:24:56 51°13.635 2°56.025 129.7 -999 166 7.5
2007-05-04 07:25:01 51°13.635 2°56.025 129.7 -999 317 7.5
2007-05-04 07:25:06 51°13.636 2°56.025 129.7 -999 193 7.4
2007-05-04 07:25:11 51°13.636 2°56.026 129.7 -999 145 7.5
2007-05-04 07:25:16 51°13.636 2°56.026 129.7 -999 54 7.4
2007-05-04 07:25:21 51°13.636 2°56.026 129.7 -999 194 7.5
2007-05-04 07:25:26 51°13.636 2°56.026 129.7 -999 79 7.6
2007-05-04 07:25:31 51°13.636 2°56.026 129.7 -999 179 7.4
2007-05-04 07:25:36 51°13.636 2°56.026 129.7 -999 171 7.4
2007-05-04 07:25:41 51°13.636 2°56.026 129.7 -999 222 7.4
2007-05-04 07:25:46 51°13.636 2°56.026 129.7 -999 5 7.5
2007-05-04 07:25:51 51°13.635 2°56.026 129.7 -999 28 7.4
2007-05-04 07:25:56 51°13.635 2°56.026 129.7 -999 192 7.5
2007-05-04 07:26:01 51°13.635 2°56.026 129.7 -999 330 7.5
2007-05-04 07:26:06 51°13.635 2°56.026 129.7 -999 137 7.6
2007-05-04 07:26:11 51°13.635 2°56.026 129.7 -999 338 7.4
2007-05-04 07:26:16 51°13.635 2°56.026 129.7 -999 343 7.4
2007-05-04 07:26:21 51°13.635 2°56.026 129.7 -999 335 7.5
2007-05-04 07:26:26 51°13.635 2°56.026 129.7 -999 153 7.4
2007-05-04 07:26:31 51°13.635 2°56.026 129.7 -999 159 5.5
2007-05-04 07:26:36 51°13.635 2°56.026 129.7 -999 42 7.5
2007-05-04 07:26:41 51°13.635 2°56.026 129.7 -999 185 5.5
2007-05-04 07:26:46 51°13.635 2°56.026 129.7 -999 165 7.5
2007-05-04 07:26:51 51°13.635 2°56.026 129.7 -999 155 7.4
2007-05-04 07:26:56 51°13.635 2°56.026 129.7 -999 323 7.5
2007-05-04 07:27:01 51°13.635 2°56.026 129.7 -999 114 7.5
2007-05-04 07:27:06 51°13.635 2°56.026 129.7 -999 38 7.5
2007-05-04 07:27:11 51°13.635 2°56.026 129.7 -999 45 7.4
2007-05-04 07:27:16 51°13.635 2°56.026 129.7 -999 154 7.5
2007-05-04 07:27:21 51°13.635 2°56.026 129.7 -999 197 7.5
2007-05-04 07:27:26 51°13.635 2°56.026 129.7 -999 217 7.3
2007-05-04 07:27:31 51°13.635 2°56.026 129.7 -999 231 7.5
2007-05-04 07:27:36 51°13.635 2°56.026 129.7 -999 189 7.5
2007-05-04 07:27:41 51°13.635 2°56.026 129.7 -999 170 7.6
2007-05-04 07:27:46 51°13.635 2°56.026 129.7 -999 321 7.3
2007-05-04 07:27:51 51°13.635 2°56.026 129.7 -999 329 7.5
2007-05-04 07:27:56 51°13.635 2°56.026 129.7 -999 156 7.4
2007-05-04 07:28:01 51°13.635 2°56.026 129.7 -999 230 7.4
2007-05-04 07:28:06 51°13.635 2°56.026 129.7 -999 186 7.5
2007-05-04 07:28:11 51°13.635 2°56.026 129.7 -999 256 7.6
2007-05-04 07:28:16 51°13.635 2°56.026 129.7 -999 79 7.5
2007-05-04 07:28:21 51°13.635 2°56.026 129.7 -999 188 7.5
2007-05-04 07:28:26 51°13.635 2°56.026 129.7 -999 20 7.4
2007-05-04 07:28:31 51°13.635 2°56.026 129.7 -999 271 7.6
2007-05-04 07:28:36 51°13.635 2°56.026 129.7 -999 81 7.4
2007-05-04 07:28:41 51°13.635 2°56.026 129.7 0.1 202 7.4
2007-05-04 07:28:46 51°13.635 2°56.026 129.7 -999 212 7.4
2007-05-04 07:28:51 51°13.635 2°56.026 129.7 -999 213 7.4
2007-05-04 07:28:56 51°13.635 2°56.026 129.7 -999 193 7.3
2007-05-04 07:29:01 51°13.635 2°56.026 129.7 -999 202 7.4
2007-05-04 07:29:06 51°13.635 2°56.026 129.7 -999 155 5.5
2007-05-04 07:29:11 51°13.635 2°56.026 129.7 -999 256 7.3
2007-05-04 07:29:16 51°13.635 2°56.026 129.7 -999 273 7.4
2007-05-04 07:29:21 51°13.635 2°56.026 129.7 -999 307 7.3
2007-05-04 07:29:26 51°13.635 2°56.026 129.7 -999 15 7.3
2007-05-04 07:29:31 51°13.635 2°56.026 129.7 -999 52 7.3
2007-05-04 07:29:36 51°13.635 2°56.026 129.7 -999 140 7.4
2007-05-04 07:29:41 51°13.635 2°56.026 129.7 -999 266 5.5
2007-05-04 07:29:46 51°13.635 2°56.026 129.7 -999 311 7.4
2007-05-04 07:29:51 51°13.635 2°56.026 129.7 -999 11 5.4
2007-05-04 07:29:56 51°13.635 2°56.026 129.7 -999 317 7.4
2007-05-04 07:30:01 51°13.635 2°56.026 129.6 -999 61 5.5
2007-05-04 07:30:06 51°13.635 2°56.026 129.6 -999 23 7.4
2007-05-04 07:30:11 51°13.634 2°56.026 129.6 -999 47 7.6
2007-05-04 07:30:16 51°13.634 2°56.026 129.6 -999 208 7.4
2007-05-04 07:30:21 51°13.634 2°56.026 129.6 -999 135 7.4
2007-05-04 07:30:26 51°13.634 2°56.026 129.6 -999 165 7.4
2007-05-04 07:30:31 51°13.634 2°56.026 129.6 -999 356 7.4
2007-05-04 07:30:36 51°13.634 2°56.026 129.6 -999 189 5.5
2007-05-04 07:30:41 51°13.634 2°56.026 129.6 -999 260 7.3
2007-05-04 07:30:46 51°13.634 2°56.026 129.6 -999 155 7.3
2007-05-04 07:30:51 51°13.634 2°56.026 129.6 -999 166 7.3
2007-05-04 07:30:56 51°13.634 2°56.026 129.6 -999 57 7.5
2007-05-04 07:31:01 51°13.634 2°56.026 129.6 -999 214 7.4
2007-05-04 07:31:06 51°13.634 2°56.026 129.6 -999 46 7.4
2007-05-04 07:31:11 51°13.634 2°56.026 129.6 -999 26 7.4
2007-05-04 07:31:16 51°13.635 2°56.026 129.6 -999 39 7.5
2007-05-04 07:31:21 51°13.635 2°56.026 129.6 -999 49 7.5
2007-05-04 07:31:26 51°13.635 2°56.026 129.6 -999 101 5.5
2007-05-04 07:31:31 51°13.635 2°56.026 129.6 -999 167 7.4
2007-05-04 07:31:36 51°13.635 2°56.026 129.6 -999 311 7.4
2007-05-04 07:31:41 51°13.635 2°56.026 129.6 -999 273 7.4
2007-05-04 07:31:46 51°13.635 2°56.026 129.6 -999 151 7.4
2007-05-04 07:31:51 51°13.635 2°56.026 129.6 -999 150 7.4
2007-05-04 07:31:56 51°13.635 2°56.026 129.6 -999 26 7.4
2007-05-04 07:32:01 51°13.635 2°56.026 129.6 -999 216 7.4
2007-05-04 07:32:06 51°13.635 2°56.025 129.6 -999 230 7.4
2007-05-04 07:32:11 51°13.635 2°56.025 129.6 -999 202 7.4
2007-05-04 07:32:16 51°13.634 2°56.025 129.6 -999 222 7.4
2007-05-04 07:32:21 51°13.634 2°56.025 129.6 -999 123 7.5
2007-05-04 07:32:26 51°13.634 2°56.025 129.6 -999 356 7.5
2007-05-04 07:32:31 51°13.634 2°56.025 129.6 -999 295 7.4
2007-05-04 07:32:36 51°13.634 2°56.025 129.6 -999 259 7.4
2007-05-04 07:32:41 51°13.634 2°56.025 129.6 -999 287 7.4
2007-05-04 07:32:46 51°13.634 2°56.025 129.6 -999 211 7.4
2007-05-04 07:32:51 51°13.634 2°56.025 129.6 -999 224 7.7
2007-05-04 07:32:56 51°13.634 2°56.025 129.6 -999 145 7.7
2007-05-04 07:33:01 51°13.634 2°56.025 129.6 -999 97 7.4
2007-05-04 07:33:06 51°13.634 2°56.025 129.6 -999 90 7.4
2007-05-04 07:33:11 51°13.634 2°56.025 129.6 -999 230 7.4
2007-05-04 07:33:16 51°13.634 2°56.025 129.6 -999 40 7.4
2007-05-04 07:33:21 51°13.634 2°56.025 129.6 -999 117 7.4
2007-05-04 07:33:26 51°13.634 2°56.025 129.6 -999 244 7.4
2007-05-04 07:33:31 51°13.634 2°56.025 129.6 -999 296 7.4
2007-05-04 07:33:36 51°13.634 2°56.025 129.6 -999 269 7.4
2007-05-04 07:33:41 51°13.634 2°56.025 129.6 -999 260 7.4
2007-05-04 07:33:46 51°13.634 2°56.025 129.6 -999 111 7.4
2007-05-04 07:33:51 51°13.634 2°56.025 129.6 -999 152 7.4
2007-05-04 07:33:56 51°13.635 2°56.025 129.6 -999 34 7.4
2007-05-04 07:34:01 51°13.635 2°56.025 129.6 -999 250 7.4
2007-05-04 07:34:06 51°13.635 2°56.025 129.6 -999 178 7.4
2007-05-04 07:34:11 51°13.635 2°56.025 129.6 -999 156 7.4
2007-05-04 07:34:16 51°13.635 2°56.025 129.6 -999 141 5.5
2007-05-04 07:34:21 51°13.635 2°56.025 129.6 0.1 140 7.5
2007-05-04 07:34:26 51°13.635 2°56.025 129.6 0.1 100 -999
2007-05-04 07:34:31 51°13.635 2°56.025 129.6 -999 339 7.3
2007-05-04 07:34:36 51°13.635 2°56.025 129.5 0.1 11 5.4
2007-05-04 07:34:41 51°13.635 2°56.025 129.1 -999 12 7.5
2007-05-04 07:34:46 51°13.635 2°56.025 129 -999 211 7.4
2007-05-04 07:34:51 51°13.635 2°56.025 128.9 -999 133 -999
2007-05-04 07:34:56 51°13.634 2°56.025 128.8 -999 75 7.4
2007-05-04 07:35:01 51°13.634 2°56.025 128.8 -999 236 7.3
2007-05-04 07:35:06 51°13.634 2°56.025 128.8 -999 238 -999
2007-05-04 07:35:11 51°13.634 2°56.025 128.9 -999 217 7.3
2007-05-04 07:35:16 51°13.634 2°56.025 128.9 -999 140 5.5
2007-05-04 07:35:21 51°13.634 2°56.025 129.1 -999 239 7.4
2007-05-04 07:35:26 51°13.634 2°56.025 129.1 -999 251 5.4
2007-05-04 07:35:31 51°13.634 2°56.025 129.3 -999 273 7.4
2007-05-04 07:35:36 51°13.634 2°56.025 129.3 -999 228 7.3
2007-05-04 07:35:41 51°13.634 2°56.025 129.4 -999 228 5.5
2007-05-04 07:35:46 51°13.634 2°56.025 129.4 -999 216 7.5
2007-05-04 07:35:51 51°13.634 2°56.025 129.6 -999 209 7.5
2007-05-04 07:35:56 51°13.634 2°56.025 129.8 -999 236 7.6
2007-05-04 07:36:01 51°13.634 2°56.025 129.9 -999 217 5.5
2007-05-04 07:36:06 51°13.634 2°56.025 129.9 -999 150 7.4
2007-05-04 07:36:11 51°13.634 2°56.025 130.1 -999 94 7.4
2007-05-04 07:36:16 51°13.634 2°56.025 130.2 -999 355 7.5
2007-05-04 07:36:21 51°13.634 2°56.024 130.3 -999 297 7.5
2007-05-04 07:36:26 51°13.634 2°56.025 130.3 -999 51 5.5
2007-05-04 07:36:31 51°13.634 2°56.025 130.3 -999 87 7.4
2007-05-04 07:36:36 51°13.634 2°56.025 129.7 -999 116 7.3
2007-05-04 07:36:41 51°13.634 2°56.025 129 -999 68 7.4
2007-05-04 07:36:46 51°13.634 2°56.025 128.1 -999 71 7.3
2007-05-04 07:36:51 51°13.634 2°56.025 127.2 0.1 184 7.4
2007-05-04 07:36:56 51°13.634 2°56.025 126.2 -999 190 5.4
2007-05-04 07:37:01 51°13.634 2°56.025 124.9 0.1 208 7.4
2007-05-04 07:37:06 51°13.633 2°56.025 124.1 0.1 189 5.4
2007-05-04 07:37:11 51°13.633 2°56.025 123.5 0.1 186 7.3
2007-05-04 07:37:16 51°13.633 2°56.025 122.5 0.1 193 5.5
2007-05-04 07:37:21 51°13.633 2°56.025 121.3 0.1 194 7.5
2007-05-04 07:37:26 51°13.633 2°56.025 119.8 0.1 195 7.5
2007-05-04 07:37:31 51°13.633 2°56.025 118.5 0.1 194 7.5
2007-05-04 07:37:36 51°13.633 2°56.024 117.5 0.1 215 7.5
2007-05-04 07:37:41 51°13.633 2°56.024 116.3 0.1 248 7.6
2007-05-04 07:37:46 51°13.633 2°56.024 115.2 0.2 255 -999
2007-05-04 07:37:51 51°13.633 2°56.023 114 0.2 273 7.6
2007-05-04 07:37:56 51°13.633 2°56.023 113.5 0.3 275 7.6
2007-05-04 07:38:01 51°13.633 2°56.022 113.1 0.5 284 7.7
2007-05-04 07:38:06 51°13.633 2°56.02 112.8 0.7 286 7.6
2007-05-04 07:38:11 51°13.634 2°56.018 112.7 1 288 7.6
2007-05-04 07:38:16 51°13.634 2°56.016 112.8 1.2 288 7.7
2007-05-04 07:38:21 51°13.635 2°56.013 113.2 1.3 290 7.5
2007-05-04 07:38:26 51°13.635 2°56.01 113.8 1.5 291 7.6
2007-05-04 07:38:31 51°13.636 2°56.007 114.2 1.6 292 7.6
2007-05-04 07:38:36 51°13.637 2°56.003 114.6 1.7 292 5.1
2007-05-04 07:38:41 51°13.638 2°55.999 115 1.8 293 -999
2007-05-04 07:38:46 51°13.639 2°55.995 115.2 1.9 293 -999
2007-05-04 07:38:51 51°13.64 2°55.991 115.2 2 295 -999
2007-05-04 07:38:56 51°13.642 2°55.987 115.2 2.2 293 -999
2007-05-04 07:39:01 51°13.643 2°55.982 115.3 2.4 293 -999
2007-05-04 07:39:06 51°13.644 2°55.977 115.4 2.5 293 -999
2007-05-04 07:39:11 51°13.646 2°55.972 115.4 2.6 293 -999
2007-05-04 07:39:16 51°13.647 2°55.967 115 2.6 292 -999
2007-05-04 07:39:21 51°13.648 2°55.961 114.3 2.7 291 -999
2007-05-04 07:39:26 51°13.65 2°55.955 113.5 2.8 291 -999
2007-05-04 07:39:31 51°13.651 2°55.949 113.1 2.9 289 -999
2007-05-04 07:39:36 51°13.653 2°55.943 112.9 3 289 -999
2007-05-04 07:39:41 51°13.654 2°55.936 112.8 3.1 289 -999
2007-05-04 07:39:46 51°13.655 2°55.93 112.9 3.2 289 -999
2007-05-04 07:39:51 51°13.657 2°55.923 113.2 3.2 289 -999
2007-05-04 07:39:56 51°13.658 2°55.916 113.5 3.3 289 -999
2007-05-04 07:40:01 51°13.66 2°55.91 113.5 3.3 289 -999
2007-05-04 07:40:06 51°13.661 2°55.902 113.7 3.3 289 -999
2007-05-04 07:40:11 51°13.663 2°55.895 113.8 3.3 289 -999
2007-05-04 07:40:16 51°13.664 2°55.888 113.9 3.4 288 -999
2007-05-04 07:40:21 51°13.665 2°55.881 113.9 3.4 290 -999
2007-05-04 07:40:26 51°13.667 2°55.874 114.2 3.4 288 -999
2007-05-04 07:40:31 51°13.669 2°55.867 114.6 3.4 290 -999
2007-05-04 07:40:36 51°13.671 2°55.86 115.4 3.4 290 -999
2007-05-04 07:40:41 51°13.672 2°55.853 116.5 3.5 292 -999
2007-05-04 07:40:46 51°13.674 2°55.846 117.8 3.5 293 -999
2007-05-04 07:40:51 51°13.676 2°55.839 119.1 3.5 294 -999
2007-05-04 07:40:56 51°13.678 2°55.832 120.5 3.5 296 -999
2007-05-04 07:41:01 51°13.681 2°55.825 121.9 3.5 298 -999
2007-05-04 07:41:06 51°13.683 2°55.818 123.2 3.6 299 -999
2007-05-04 07:41:11 51°13.685 2°55.811 124.2 3.5 300 -999
2007-05-04 07:41:16 51°13.688 2°55.805 125.3 3.3 301 -999
2007-05-04 07:41:21 51°13.69 2°55.799 126.1 3.2 302 -999
2007-05-04 07:41:26 51°13.692 2°55.793 127 3 303 -999
2007-05-04 07:41:31 51°13.694 2°55.788 128.1 2.7 302 9.5
2007-05-04 07:41:36 51°13.696 2°55.785 128.6 2.1 302 9.9
2007-05-04 07:41:41 51°13.697 2°55.782 128.7 1.4 303 9.9
2007-05-04 07:41:46 51°13.698 2°55.78 128.1 1 297 10.2
2007-05-04 07:41:51 51°13.699 2°55.778 126.5 1 305 10.3
2007-05-04 07:41:56 51°13.699 2°55.776 124.5 1.2 295 10.3
2007-05-04 07:42:01 51°13.7 2°55.773 123.3 1.4 301 10.4
2007-05-04 07:42:06 51°13.701 2°55.77 122.3 1.6 295 10.4
2007-05-04 07:42:11 51°13.702 2°55.766 121.1 1.9 297 10.7
2007-05-04 07:42:16 51°13.704 2°55.762 119.9 2.1 294 10.6
2007-05-04 07:42:21 51°13.705 2°55.757 119 2.3 296 10.5
2007-05-04 07:42:26 51°13.706 2°55.752 118.2 2.4 293 -999
2007-05-04 07:42:31 51°13.707 2°55.748 117.1 2.4 293 -999
2007-05-04 07:42:36 51°13.709 2°55.743 116.1 2.4 291 -999
2007-05-04 07:42:41 51°13.71 2°55.738 115.7 2.3 291 -999
2007-05-04 07:42:46 51°13.711 2°55.733 115.6 2.2 291 -999
2007-05-04 07:42:51 51°13.712 2°55.729 115.6 2 288 -999
2007-05-04 07:42:56 51°13.713 2°55.726 115.4 1.5 290 -999
2007-05-04 07:43:01 51°13.713 2°55.724 114.7 1 281 -999
2007-05-04 07:43:06 51°13.713 2°55.723 113.2 0.4 289 -999
2007-05-04 07:43:11 51°13.713 2°55.723 110.3 0.1 159 4.7
2007-05-04 07:43:16 51°13.713 2°55.724 106.9 0.5 100 5.1
2007-05-04 07:43:21 51°13.712 2°55.726 103.7 0.9 101 5.2
2007-05-04 07:43:26 51°13.712 2°55.728 100.1 1.1 92 4.9
2007-05-04 07:43:31 51°13.712 2°55.731 95 1.4 89 -999
2007-05-04 07:43:36 51°13.713 2°55.735 90.1 1.6 85 5
2007-05-04 07:43:41 51°13.713 2°55.739 85.5 1.8 81 4.8
2007-05-04 07:43:46 51°13.714 2°55.743 80.7 1.8 75 5.1
2007-05-04 07:43:51 51°13.715 2°55.747 76.2 1.8 73 5.1
2007-05-04 07:43:56 51°13.716 2°55.751 72.2 1.8 70 5.6
2007-05-04 07:44:01 51°13.716 2°55.754 68.9 1.7 66 4.8
2007-05-04 07:44:06 51°13.717 2°55.757 65.9 1.5 66 4.9
2007-05-04 07:44:11 51°13.718 2°55.759 63.8 1.1 70 5
2007-05-04 07:44:16 51°13.718 2°55.76 62.3 0.5 83 4.8
2007-05-04 07:44:21 51°13.717 2°55.76 59.6 0.3 186 4.7
2007-05-04 07:44:26 51°13.716 2°55.759 57.5 0.9 218 -999
2007-05-04 07:44:31 51°13.715 2°55.757 56.8 1.2 223 4.8
2007-05-04 07:44:36 51°13.714 2°55.755 56.7 1.4 226 4.9
2007-05-04 07:44:41 51°13.712 2°55.752 57.2 1.6 225 5.2
2007-05-04 07:44:46 51°13.711 2°55.749 57.8 1.7 231 -999
2007-05-04 07:44:51 51°13.709 2°55.746 58.6 1.7 228 -999
2007-05-04 07:44:56 51°13.707 2°55.743 59.3 1.7 230 -999
2007-05-04 07:45:01 51°13.706 2°55.741 59.8 1.7 230 -999
2007-05-04 07:45:06 51°13.705 2°55.738 60.5 1.5 232 -999
2007-05-04 07:45:11 51°13.703 2°55.736 61.3 1.3 225 -999
2007-05-04 07:45:16 51°13.702 2°55.734 61.6 1.1 227 -999
2007-05-04 07:45:21 51°13.701 2°55.733 61.7 0.9 214 10.5
2007-05-04 07:45:26 51°13.7 2°55.733 61.6 0.3 203 10.3
2007-05-04 07:45:31 51°13.7 2°55.734 61.2 0.6 91 10.3
2007-05-04 07:45:36 51°13.701 2°55.736 59.5 1.1 56 10.4
2007-05-04 07:45:41 51°13.703 2°55.739 55.4 1.6 54 10.6
2007-05-04 07:45:46 51°13.704 2°55.742 50.1 1.8 43 4.9
2007-05-04 07:45:51 51°13.707 2°55.744 44.2 1.9 37 10.6
2007-05-04 07:45:56 51°13.709 2°55.747 38.7 1.9 36 10.5
2007-05-04 07:46:01 51°13.711 2°55.749 34.1 1.9 32 10.5
2007-05-04 07:46:06 51°13.713 2°55.751 30.1 1.8 32 4.9
2007-05-04 07:46:11 51°13.715 2°55.753 27.7 1.5 32 5.1
2007-05-04 07:46:16 51°13.716 2°55.754 26.6 1 45 5
2007-05-04 07:46:21 51°13.716 2°55.755 25.8 0.3 68 4.8
2007-05-04 07:46:26 51°13.715 2°55.755 24.6 0.6 171 -999
2007-05-04 07:46:31 51°13.713 2°55.754 23.9 1.2 190 4.7
2007-05-04 07:46:36 51°13.711 2°55.753 23.9 1.7 195 10.6
2007-05-04 07:46:41 51°13.708 2°55.752 24.3 2 198 10.5
2007-05-04 07:46:46 51°13.706 2°55.75 24.8 1.9 197 -999
2007-05-04 07:46:51 51°13.704 2°55.749 25.8 1.8 199 -999
2007-05-04 07:46:56 51°13.701 2°55.747 26.8 1.8 201 -999
2007-05-04 07:47:01 51°13.699 2°55.745 26.9 1.7 200 -999
2007-05-04 07:47:06 51°13.697 2°55.744 26.9 1.6 201 -999
2007-05-04 07:47:11 51°13.695 2°55.743 26.9 1.5 199 10.2
2007-05-04 07:47:16 51°13.693 2°55.742 26.8 1.3 200 10
2007-05-04 07:47:21 51°13.692 2°55.741 26.3 1.2 199 10
2007-05-04 07:47:26 51°13.69 2°55.74 25.7 1.1 199 9.9
2007-05-04 07:47:31 51°13.689 2°55.74 24.7 0.9 196 9.6
2007-05-04 07:47:36 51°13.688 2°55.74 23.4 0.7 192 9.8
2007-05-04 07:47:41 51°13.687 2°55.739 22.1 0.6 192 9.7
2007-05-04 07:47:46 51°13.687 2°55.74 20.7 0.4 195 9.7
2007-05-04 07:47:51 51°13.687 2°55.74 19.1 0.2 179 9.6
2007-05-04 07:47:56 51°13.687 2°55.74 17.4 0.1 181 9.7
2007-05-04 07:48:01 51°13.687 2°55.74 15.6 -999 20 9.6
2007-05-04 07:48:06 51°13.687 2°55.74 13.7 0.2 357 9.6
2007-05-04 07:48:11 51°13.687 2°55.74 11.2 0.3 -999 9.7
2007-05-04 07:48:16 51°13.688 2°55.74 8.7 0.4 358 9.7
2007-05-04 07:48:21 51°13.689 2°55.74 5.8 0.5 354 9.7
2007-05-04 07:48:26 51°13.689 2°55.74 2.8 0.6 352 9.7
2007-05-04 07:48:31 51°13.691 2°55.739 359.8 0.8 344 9.9
2007-05-04 07:48:36 51°13.692 2°55.739 356.6 1 347 9.8
2007-05-04 07:48:41 51°13.694 2°55.737 353 1.3 340 9.7
2007-05-04 07:48:46 51°13.696 2°55.736 349.2 1.6 341 9.8
2007-05-04 07:48:51 51°13.698 2°55.734 346.6 1.9 340 9.8
2007-05-04 07:48:56 51°13.701 2°55.733 344.7 2.2 338 10.2
2007-05-04 07:49:01 51°13.705 2°55.731 343.4 2.4 339 10.5
2007-05-04 07:49:06 51°13.708 2°55.729 342.3 2.7 337 10.6
2007-05-04 07:49:11 51°13.712 2°55.727 341.1 3 338 10.8
2007-05-04 07:49:16 51°13.716 2°55.724 339.7 3.2 335 10.5
2007-05-04 07:49:21 51°13.721 2°55.721 338.5 3.4 335 10.5
2007-05-04 07:49:26 51°13.725 2°55.717 337.5 3.6 333 10.4
2007-05-04 07:49:31 51°13.73 2°55.713 336.8 3.8 333 10.3
2007-05-04 07:49:36 51°13.734 2°55.709 336.3 3.9 332 10.1
2007-05-04 07:49:41 51°13.739 2°55.704 336 4.2 332 10
2007-05-04 07:49:46 51°13.745 2°55.699 335.9 4.5 331 9.9
2007-05-04 07:49:51 51°13.75 2°55.694 335.7 4.7 331 10.1
2007-05-04 07:49:56 51°13.756 2°55.689 335.6 4.9 331 10.1
2007-05-04 07:50:01 51°13.762 2°55.683 335.7 5.1 332 9.8
2007-05-04 07:50:06 51°13.769 2°55.678 336.1 5.3 332 9.6
2007-05-04 07:50:11 51°13.776 2°55.673 336.9 5.4 333 9.6
2007-05-04 07:50:16 51°13.783 2°55.667 338.1 5.5 333 9.6
2007-05-04 07:50:21 51°13.79 2°55.662 338.9 5.6 335 9.5
2007-05-04 07:50:26 51°13.797 2°55.656 339 5.8 334 9.6
2007-05-04 07:50:31 51°13.805 2°55.652 338.9 5.9 334 9.5
2007-05-04 07:50:36 51°13.813 2°55.646 338.9 6 335 9.4
2007-05-04 07:50:41 51°13.82 2°55.641 339.5 6.1 335 9.4
2007-05-04 07:50:46 51°13.829 2°55.635 340.1 6.5 336 9.3
2007-05-04 07:50:51 51°13.837 2°55.628 340.3 6.8 336 9.3
2007-05-04 07:50:56 51°13.846 2°55.622 340.3 7 335 9.4
2007-05-04 07:51:01 51°13.856 2°55.616 340.3 7.3 335 9.4
2007-05-04 07:51:06 51°13.865 2°55.609 339.8 7.6 336 9.2
2007-05-04 07:51:11 51°13.875 2°55.602 339.5 7.8 336 9.2
2007-05-04 07:51:16 51°13.885 2°55.594 339.6 7.9 336 9.1
2007-05-04 07:51:21 51°13.895 2°55.587 339.8 8.1 335 9.2
2007-05-04 07:51:26 51°13.905 2°55.579 339.8 8.2 334 5.1
2007-05-04 07:51:31 51°13.915 2°55.571 338.9 8.3 336 -999
2007-05-04 07:51:36 51°13.925 2°55.564 341.1 8.3 338 4.7
2007-05-04 07:51:41 51°13.936 2°55.556 342.5 8.4 336 9.3
2007-05-04 07:51:46 51°13.946 2°55.548 341.7 8.5 335 4.8
2007-05-04 07:51:51 51°13.958 2°55.542 341 8.7 339 4.7
2007-05-04 07:51:56 51°13.969 2°55.535 343.2 8.8 339 4.8
2007-05-04 07:52:01 51°13.981 2°55.527 344.5 8.9 337 9.7
2007-05-04 07:52:06 51°13.992 2°55.519 343.3 9 335 9.8
2007-05-04 07:52:11 51°14.003 2°55.51 341.3 9.1 335 -999
2007-05-04 07:52:16 51°14.015 2°55.502 341.7 9.1 337 9.8
2007-05-04 07:52:21 51°14.026 2°55.493 342.4 9.1 336 9.8
2007-05-04 07:52:26 51°14.038 2°55.485 342.3 9.2 336 9.9
2007-05-04 07:52:31 51°14.049 2°55.476 341.4 9.2 336 10
2007-05-04 07:52:36 51°14.061 2°55.469 341.1 9.2 337 10.1
2007-05-04 07:52:41 51°14.073 2°55.461 341.9 9.3 339 10.2
2007-05-04 07:52:46 51°14.085 2°55.454 343 9.3 339 10.2
2007-05-04 07:52:51 51°14.097 2°55.446 343.5 9.4 338 -999
2007-05-04 07:52:56 51°14.109 2°55.438 343.2 9.5 337 10.3
2007-05-04 07:53:01 51°14.121 2°55.429 341.9 9.6 336 10.3
2007-05-04 07:53:06 51°14.134 2°55.421 341.1 9.7 335 10.2
2007-05-04 07:53:11 51°14.146 2°55.412 340.6 9.8 335 -999
2007-05-04 07:53:16 51°14.158 2°55.403 340.3 9.9 335 10.2
2007-05-04 07:53:21 51°14.171 2°55.393 340.2 9.9 334 -999
2007-05-04 07:53:26 51°14.183 2°55.383 339.1 10 332 10.2
2007-05-04 07:53:31 51°14.195 2°55.371 336.4 10.1 328 10.3
2007-05-04 07:53:36 51°14.206 2°55.358 333.8 10.1 327 10.2
2007-05-04 07:53:41 51°14.218 2°55.345 332.1 10.1 325 10.3
2007-05-04 07:53:46 51°14.229 2°55.332 330.7 10 321 10.2
2007-05-04 07:53:51 51°14.239 2°55.317 327.5 10 318 -999
2007-05-04 07:53:56 51°14.248 2°55.301 324.4 10.1 314 10.6
2007-05-04 07:54:01 51°14.258 2°55.284 319.7 10.1 312 10.2
2007-05-04 07:54:06 51°14.267 2°55.267 316.6 10.1 311 10.2
2007-05-04 07:54:11 51°14.276 2°55.25 315.1 10.2 310 10.2
2007-05-04 07:54:16 51°14.285 2°55.232 314.9 10.2 309 10.3
2007-05-04 07:54:21 51°14.293 2°55.214 313.9 10.3 307 10.2
2007-05-04 07:54:26 51°14.302 2°55.195 312.8 10.6 306 9.9
2007-05-04 07:54:31 51°14.31 2°55.176 311.3 10.7 304 10.1
2007-05-04 07:54:36 51°14.319 2°55.155 309.5 10.9 303 10.2
2007-05-04 07:54:41 51°14.327 2°55.134 308.4 11.1 302 10.1
2007-05-04 07:54:46 51°14.335 2°55.113 307 11.2 301 10.1
2007-05-04 07:54:51 51°14.343 2°55.092 306.1 11.4 301 10
2007-05-04 07:54:56 51°14.351 2°55.07 305.6 11.6 301 9.8
2007-05-04 07:55:01 51°14.36 2°55.047 305.6 11.8 300 9.5
2007-05-04 07:55:06 51°14.367 2°55.024 305.5 11.9 299 9.2
2007-05-04 07:55:11 51°14.375 2°55.001 305.3 12 297 9
2007-05-04 07:55:16 51°14.382 2°54.976 304.5 12.2 296 9.2
2007-05-04 07:55:21 51°14.389 2°54.952 303.7 12.1 295 8.6
2007-05-04 07:55:26 51°14.397 2°54.927 303.1 12.4 295 9.6
2007-05-04 07:55:31 51°14.404 2°54.902 302.7 12.7 296 9.4
2007-05-04 07:55:36 51°14.412 2°54.877 302.7 12.8 297 9.4
2007-05-04 07:55:41 51°14.42 2°54.85 303.3 13 296 9.8
2007-05-04 07:55:46 51°14.428 2°54.824 304.2 13.2 296 9.8
2007-05-04 07:55:51 51°14.436 2°54.798 303.6 13.4 295 9.8
2007-05-04 07:55:56 51°14.444 2°54.771 303 13.4 295 9.3
2007-05-04 07:56:01 51°14.451 2°54.744 303.1 13.5 295 9.6
2007-05-04 07:56:06 51°14.459 2°54.717 303.4 13.4 294 9.8
2007-05-04 07:56:11 51°14.466 2°54.69 303.4 13.4 293 9.5
2007-05-04 07:56:16 51°14.473 2°54.661 303.1 13.6 290 10.1
2007-05-04 07:56:21 51°14.479 2°54.632 300.5 13.7 288 9.9
2007-05-04 07:56:26 51°14.484 2°54.603 297.9 13.7 286 9.6
2007-05-04 07:56:31 51°14.489 2°54.574 295.5 13.6 285 9.3
2007-05-04 07:56:36 51°14.492 2°54.544 294.8 13.8 280 9.4
2007-05-04 07:56:41 51°14.495 2°54.514 290.6 13.9 278 9.6
2007-05-04 07:56:46 51°14.496 2°54.483 287.5 13.9 272 9.4
2007-05-04 07:56:51 51°14.495 2°54.452 283.1 14 267 9
2007-05-04 07:56:56 51°14.493 2°54.422 277.1 14 265 9.4
2007-05-04 07:57:01 51°14.49 2°54.391 272.9 14 259 9.6
2007-05-04 07:57:06 51°14.485 2°54.361 268.5 14.1 256 9.9
2007-05-04 07:57:11 51°14.479 2°54.331 263.6 14.1 252 10
2007-05-04 07:57:16 51°14.472 2°54.302 259.1 14.2 248 10.2
2007-05-04 07:57:21 51°14.464 2°54.272 254.9 14.4 248 9.9
2007-05-04 07:57:26 51°14.456 2°54.244 252.8 14.2 244 9.1
2007-05-04 07:57:31 51°14.447 2°54.216 249.9 14.2 243 8.6
2007-05-04 07:57:36 51°14.438 2°54.189 247.8 14 242 8.3
2007-05-04 07:57:41 51°14.428 2°54.163 246.7 13.8 239 8.3
2007-05-04 07:57:46 51°14.419 2°54.135 245.4 14 241 8.4
2007-05-04 07:57:51 51°14.408 2°54.109 245.2 14.3 238 8.2
2007-05-04 07:57:56 51°14.4 2°54.08 243.4 14.2 244 8.2
2007-05-04 07:58:01 51°14.388 2°54.054 246.3 14.3 238 7.8
2007-05-04 07:58:06 51°14.38 2°54.026 242 14.1 242 7.9
2007-05-04 07:58:11 51°14.371 2°53.998 247.3 14.1 244 8
2007-05-04 07:58:16 51°14.361 2°53.971 245.8 14.3 238 8
2007-05-04 07:58:21 51°14.353 2°53.942 245.8 14.3 244 8.2
2007-05-04 07:58:26 51°14.343 2°53.915 246.9 14.4 242 8.1
2007-05-04 07:58:31 51°14.333 2°53.886 246.5 14.4 241 8.1
2007-05-04 07:58:36 51°14.325 2°53.858 246.8 14.4 244 8.2
2007-05-04 07:58:41 51°14.315 2°53.83 247.9 14.4 242 8.1
2007-05-04 07:58:46 51°14.306 2°53.802 246.7 14.4 243 8.3
2007-05-04 07:58:51 51°14.296 2°53.773 247.1 14.4 242 8.3
2007-05-04 07:58:56 51°14.287 2°53.745 246.8 14.5 242 8.4
2007-05-04 07:59:01 51°14.278 2°53.716 248 14.5 244 8.3
2007-05-04 07:59:06 51°14.269 2°53.688 247.3 14.4 242 8.2
2007-05-04 07:59:11 51°14.259 2°53.66 247.9 14.7 241 8.2
2007-05-04 07:59:16 51°14.25 2°53.631 245.4 14.4 242 8.3
2007-05-04 07:59:21 51°14.241 2°53.603 248.2 14.3 242 8.3
2007-05-04 07:59:26 51°14.229 2°53.576 247.1 14.9 238 8.2
2007-05-04 07:59:31 51°14.222 2°53.546 243.1 14.6 245 8.1
2007-05-04 07:59:36 51°14.209 2°53.52 247.1 14.8 234 8.2
2007-05-04 07:59:41 51°14.201 2°53.491 242.7 14.6 244 8.3
2007-05-04 07:59:46 51°14.188 2°53.465 244.3 14.7 234 8.3
2007-05-04 07:59:51 51°14.178 2°53.437 241.8 14.7 240 8.4
2007-05-04 07:59:56 51°14.167 2°53.41 241.2 14.6 236 8.4
2007-05-04 08:00:01 51°14.155 2°53.383 242 14.9 235 8.4
2007-05-04 08:00:06 51°14.144 2°53.356 239.5 14.7 238 8.5
2007-05-04 08:00:11 51°14.131 2°53.331 240.1 14.6 231 8.6
2007-05-04 08:00:16 51°14.121 2°53.302 237.6 14.8 240 8.5
2007-05-04 08:00:21 51°14.108 2°53.277 239.5 14.9 232 8.4
2007-05-04 08:00:26 51°14.098 2°53.248 239.3 14.9 238 8.7
2007-05-04 08:00:31 51°14.085 2°53.222 239.7 14.9 238 8.5
2007-05-04 08:00:36 51°14.075 2°53.194 239.6 14.5 237 8.6
2007-05-04 08:00:41 51°14.063 2°53.168 241 14.6 235 8.7
2007-05-04 08:00:46 51°14.053 2°53.139 239.5 14.9 239 8.8
2007-05-04 08:00:51 51°14.04 2°53.112 241.3 15 238 8.5
2007-05-04 08:00:56 51°14.03 2°53.084 240.7 14.8 238 8.6
2007-05-04 08:01:01 51°14.018 2°53.058 241.5 14.8 236 8.6
2007-05-04 08:01:06 51°14.007 2°53.03 239.8 14.9 236 8.7
2007-05-04 08:01:11 51°13.995 2°53.003 240.3 15.1 236 8.7
2007-05-04 08:01:16 51°13.983 2°52.975 238.4 15 237 8.8
2007-05-04 08:01:21 51°13.972 2°52.948 240.6 14.7 236 8.9
2007-05-04 08:01:26 51°13.961 2°52.921 240.1 14.8 238 8.8
2007-05-04 08:01:31 51°13.95 2°52.894 240.4 14.7 236 8.8
2007-05-04 08:01:36 51°13.938 2°52.866 241.3 14.9 236 9
2007-05-04 08:01:41 51°13.927 2°52.838 239.5 15.1 237 8.9
2007-05-04 08:01:46 51°13.916 2°52.81 240.2 15 239 8.8
2007-05-04 08:01:51 51°13.905 2°52.782 241.6 14.9 236 8.9
2007-05-04 08:01:56 51°13.894 2°52.754 242.4 15 240 8.8
2007-05-04 08:02:01 51°13.884 2°52.726 241.6 14.7 239 8.9
2007-05-04 08:02:06 51°13.872 2°52.699 244.5 15.2 235 8.9
2007-05-04 08:02:11 51°13.863 2°52.669 240.5 14.7 242 8.9
2007-05-04 08:02:16 51°13.85 2°52.644 244.5 15 232 9
2007-05-04 08:02:21 51°13.839 2°52.614 239.3 15.5 240 8.9
2007-05-04 08:02:26 51°13.829 2°52.585 241.4 14.8 239 8.9
2007-05-04 08:02:31 51°13.817 2°52.56 245 14.3 233 9.1
2007-05-04 08:02:36 51°13.806 2°52.532 240.9 15.1 239 8.9
2007-05-04 08:02:41 51°13.796 2°52.501 238.1 15.3 243 8.9
2007-05-04 08:02:46 51°13.787 2°52.472 246.2 14.7 244 9
2007-05-04 08:02:51 51°13.776 2°52.446 247.9 14.6 236 9
2007-05-04 08:02:56 51°13.766 2°52.417 244 15.1 240 9.2
2007-05-04 08:03:01 51°13.756 2°52.388 243.5 14.9 242 9.1
2007-05-04 08:03:06 51°13.744 2°52.361 245.9 14.7 234 9.1
2007-05-04 08:03:11 51°13.733 2°52.334 242.4 14.6 240 9.2
2007-05-04 08:03:16 51°13.721 2°52.308 240.4 14.7 231 9.3
2007-05-04 08:03:21 51°13.711 2°52.279 239.2 14.9 242 9.3
2007-05-04 08:03:26 51°13.699 2°52.252 240.9 14.9 234 9.2
2007-05-04 08:03:31 51°13.688 2°52.225 241.5 14.8 238 9.2
2007-05-04 08:03:36 51°13.676 2°52.198 240.6 14.8 236 9.2
2007-05-04 08:03:41 51°13.665 2°52.17 240.7 14.7 237 9.2
2007-05-04 08:03:46 51°13.654 2°52.143 240.2 14.8 236 9.3
2007-05-04 08:03:51 51°13.643 2°52.115 240.8 15 237 9.4
2007-05-04 08:03:56 51°13.632 2°52.087 240.7 14.8 238 9.2
2007-05-04 08:04:01 51°13.62 2°52.061 241.6 14.7 235 9.3
2007-05-04 08:04:06 51°13.609 2°52.032 239.9 15.1 239 9.2
2007-05-04 08:04:11 51°13.598 2°52.004 241 15 239 9.2
2007-05-04 08:04:16 51°13.587 2°51.976 242.4 15 238 9.2
2007-05-04 08:04:21 51°13.578 2°51.947 242.5 14.7 241 9.2
2007-05-04 08:04:26 51°13.565 2°51.92 243.8 15.3 235 9.2
2007-05-04 08:04:31 51°13.557 2°51.89 242.1 15.1 245 9.1
2007-05-04 08:04:36 51°13.544 2°51.864 245.2 14.9 233 9.1
2007-05-04 08:04:41 51°13.534 2°51.834 241.6 15.1 243 9.1
2007-05-04 08:04:46 51°13.523 2°51.807 242.4 14.8 236 9.1
2007-05-04 08:04:51 51°13.512 2°51.779 242.9 14.9 239 9.2
2007-05-04 08:04:56 51°13.501 2°51.751 241.1 15 238 9.2
2007-05-04 08:05:01 51°13.49 2°51.723 242.4 15.1 237 9.2
2007-05-04 08:05:06 51°13.479 2°51.694 241.5 14.9 239 9.4
2007-05-04 08:05:11 51°13.468 2°51.666 242.6 14.9 237 9.4
2007-05-04 08:05:16 51°13.457 2°51.638 242.3 15.1 239 9.4
2007-05-04 08:05:21 51°13.446 2°51.61 241.7 14.9 238 9.3
2007-05-04 08:05:26 51°13.436 2°51.582 242.4 14.7 239 9.5
2007-05-04 08:05:31 51°13.425 2°51.554 242.3 15.1 239 9.4
2007-05-04 08:05:36 51°13.415 2°51.525 242.8 15.2 240 9.3
2007-05-04 08:05:41 51°13.404 2°51.496 243.8 15 238 9.2
2007-05-04 08:05:46 51°13.392 2°51.469 242.8 15.1 238 9.3
2007-05-04 08:05:51 51°13.382 2°51.44 241.4 14.9 238 9.4
2007-05-04 08:05:56 51°13.371 2°51.413 242.5 14.8 238 9.4
2007-05-04 08:06:01 51°13.359 2°51.385 241 15 237 9.3
2007-05-04 08:06:06 51°13.349 2°51.356 241.2 15.1 239 9.4
2007-05-04 08:06:11 51°13.338 2°51.328 242.4 15 239 9.3
2007-05-04 08:06:16 51°13.327 2°51.299 242.8 15 239 9.4
2007-05-04 08:06:21 51°13.316 2°51.271 243.1 15.2 239 9.4
2007-05-04 08:06:26 51°13.306 2°51.242 241.8 15.1 240 9.5
2007-05-04 08:06:31 51°13.295 2°51.213 243.3 15.1 239 9.6
2007-05-04 08:06:36 51°13.285 2°51.184 244 15.1 242 9.4
2007-05-04 08:06:41 51°13.275 2°51.154 244.1 15 240 9.5
2007-05-04 08:06:46 51°13.264 2°51.126 245.8 15.2 240 9.3
2007-05-04 08:06:51 51°13.254 2°51.097 243.6 15 238 9.4
2007-05-04 08:06:56 51°13.243 2°51.068 244 15.3 239 9.5
2007-05-04 08:07:01 51°13.232 2°51.038 242.8 15.4 240 9.4
2007-05-04 08:07:06 51°13.221 2°51.01 243.5 15.1 238 9.5
2007-05-04 08:07:11 51°13.21 2°50.982 242.4 15.3 238 9.6
2007-05-04 08:07:16 51°13.199 2°50.952 241.6 15.5 240 9.5
2007-05-04 08:07:21 51°13.189 2°50.923 243.8 14.9 240 9.6
2007-05-04 08:07:26 51°13.177 2°50.895 243.9 15.1 238 9.5
2007-05-04 08:07:31 51°13.167 2°50.865 241.1 15.8 240 9.5
2007-05-04 08:07:36 51°13.157 2°50.835 242.7 15.3 243 9.5
2007-05-04 08:07:41 51°13.145 2°50.808 246.2 14.8 234 9.7
2007-05-04 08:07:46 51°13.134 2°50.778 243 15.5 240 9.4
2007-05-04 08:07:51 51°13.125 2°50.748 241 15.1 243 9.4
2007-05-04 08:07:56 51°13.113 2°50.721 246.7 15.5 236 9.5
2007-05-04 08:08:01 51°13.104 2°50.69 242.7 15.3 243 9.5
2007-05-04 08:08:06 51°13.092 2°50.661 245.1 15.2 237 9.8
2007-05-04 08:08:11 51°13.083 2°50.632 244.3 15.1 242 9.7
2007-05-04 08:08:16 51°13.071 2°50.603 243.8 15.7 237 9.7
2007-05-04 08:08:21 51°13.061 2°50.572 243.5 15.4 244 9.6
2007-05-04 08:08:26 51°13.05 2°50.545 246.4 14.7 236 9.8
2007-05-04 08:08:31 51°13.038 2°50.516 244.5 15.4 238 9.9
2007-05-04 08:08:36 51°13.029 2°50.486 240 15.3 242 9.8
2007-05-04 08:08:41 51°13.017 2°50.458 244 15.2 239 9.7
2007-05-04 08:08:46 51°13.007 2°50.428 242.4 15.5 239 9.8
2007-05-04 08:08:51 51°12.998 2°50.398 243.8 15 243 9.8
2007-05-04 08:08:56 51°12.986 2°50.37 246.1 15.1 236 9.8
2007-05-04 08:09:01 51°12.977 2°50.34 243.4 15.3 244 9.9
2007-05-04 08:09:06 51°12.965 2°50.311 244.5 15.4 239 9.8
2007-05-04 08:09:11 51°12.955 2°50.281 244.2 15.4 242 9.9
2007-05-04 08:09:16 51°12.945 2°50.252 244.5 15 242 10
2007-05-04 08:09:21 51°12.933 2°50.224 245.8 15.4 235 9.8
2007-05-04 08:09:26 51°12.925 2°50.193 241.9 15.3 246 10
2007-05-04 08:09:31 51°12.913 2°50.165 246.2 15.1 237 9.9
2007-05-04 08:09:36 51°12.904 2°50.134 244.5 15.4 244 10.1
2007-05-04 08:09:41 51°12.893 2°50.105 245 15.5 240 9.8
2007-05-04 08:09:46 51°12.884 2°50.075 244.6 15.1 243 9.8
2007-05-04 08:09:51 51°12.872 2°50.047 245.5 15.2 237 10
2007-05-04 08:09:56 51°12.862 2°50.017 243.8 15.2 241 10.1
2007-05-04 08:10:01 51°12.852 2°49.988 243.6 15.2 240 10
2007-05-04 08:10:06 51°12.84 2°49.96 244.4 15.5 237 9.9
2007-05-04 08:10:11 51°12.83 2°49.929 242.4 15.4 242 10
2007-05-04 08:10:16 51°12.819 2°49.901 244.1 15.2 239 9.9
2007-05-04 08:10:21 51°12.809 2°49.871 244 15.4 242 10
2007-05-04 08:10:26 51°12.798 2°49.841 243.8 15.3 241 9.9
2007-05-04 08:10:31 51°12.787 2°49.812 245.1 15.6 237 9.9
2007-05-04 08:10:36 51°12.777 2°49.782 242.4 15.4 244 10
2007-05-04 08:10:41 51°12.766 2°49.754 245 15.1 236 10.2
2007-05-04 08:10:46 51°12.756 2°49.724 243.6 15.3 242 10.2
2007-05-04 08:10:51 51°12.744 2°49.696 242.7 15.3 238 10.1
2007-05-04 08:10:56 51°12.734 2°49.666 243.2 15.1 241 10.1
2007-05-04 08:11:01 51°12.723 2°49.638 243.1 15.3 239 10
2007-05-04 08:11:06 51°12.715 2°49.607 243.5 15 245 10.1
2007-05-04 08:11:11 51°12.702 2°49.58 246 15.3 237 9.9
2007-05-04 08:11:16 51°12.693 2°49.549 243 15.2 240 10
2007-05-04 08:11:21 51°12.681 2°49.521 243.4 15.4 239 10
2007-05-04 08:11:26 51°12.672 2°49.491 243 15.1 241 10
2007-05-04 08:11:31 51°12.66 2°49.462 244.1 15.4 240 9.9
2007-05-04 08:11:36 51°12.652 2°49.432 243.8 15 244 10
2007-05-04 08:11:41 51°12.64 2°49.404 246.1 15 238 10.1
2007-05-04 08:11:46 51°12.631 2°49.374 244.3 15.2 243 10.2
2007-05-04 08:11:51 51°12.619 2°49.346 244.7 15.3 238 10.2
2007-05-04 08:11:56 51°12.609 2°49.317 243.1 15 242 10.3
2007-05-04 08:12:01 51°12.598 2°49.289 242.9 15.1 237 10.2
2007-05-04 08:12:06 51°12.589 2°49.259 241.6 14.9 242 10.3
2007-05-04 08:12:11 51°12.577 2°49.232 243.4 14.8 237 10.3
2007-05-04 08:12:16 51°12.568 2°49.202 242.7 15 242 10.3
2007-05-04 08:12:21 51°12.556 2°49.175 242.6 15 237 10.3
2007-05-04 08:12:26 51°12.546 2°49.146 242.2 15.1 241 10.1
2007-05-04 08:12:31 51°12.535 2°49.118 242.2 14.9 238 10.3
2007-05-04 08:12:36 51°12.525 2°49.089 242.6 14.7 241 10.3
2007-05-04 08:12:41 51°12.515 2°49.061 243.1 15 239 10.2
2007-05-04 08:12:46 51°12.505 2°49.031 243.3 14.9 243 10.2
2007-05-04 08:12:51 51°12.494 2°49.004 245 15 236 10.1
2007-05-04 08:12:56 51°12.484 2°48.975 242.3 15.1 241 10
2007-05-04 08:13:01 51°12.472 2°48.947 241.9 14.9 237 10.2
2007-05-04 08:13:06 51°12.461 2°48.919 242.4 15 239 10.1
2007-05-04 08:13:11 51°12.452 2°48.89 241.6 14.5 242 10.2
2007-05-04 08:13:16 51°12.44 2°48.863 244.7 15 235 10.1
2007-05-04 08:13:21 51°12.432 2°48.833 239.6 14.9 246 10.2
2007-05-04 08:13:26 51°12.421 2°48.805 244.1 14.8 238 10.1
2007-05-04 08:13:31 51°12.412 2°48.776 245.9 14.6 246 10.1
2007-05-04 08:13:36 51°12.4 2°48.75 245.3 15 233 10.1
2007-05-04 08:13:41 51°12.393 2°48.719 241.4 14.8 251 10.2
2007-05-04 08:13:46 51°12.381 2°48.692 245.2 14.9 236 9.9
2007-05-04 08:13:51 51°12.374 2°48.661 245 14.7 249 10.1
2007-05-04 08:13:56 51°12.363 2°48.634 247.2 15 238 10.2
2007-05-04 08:14:01 51°12.355 2°48.603 246.8 14.8 247 10.1
2007-05-04 08:14:06 51°12.345 2°48.576 247.6 14.8 238 10.6
2007-05-04 08:14:11 51°12.336 2°48.545 247.5 15.2 247 10.3
2007-05-04 08:14:16 51°12.328 2°48.515 246 14.8 245 10.2
2007-05-04 08:14:21 51°12.318 2°48.486 250.5 14.8 244 10.2
2007-05-04 08:14:26 51°12.309 2°48.456 248.7 15 245 10.2
2007-05-04 08:14:31 51°12.301 2°48.426 248.3 14.9 243 10.4
2007-05-04 08:14:36 51°12.29 2°48.397 249.2 15.6 240 10.3
2007-05-04 08:14:41 51°12.284 2°48.365 245.8 14.9 251 10.3
2007-05-04 08:14:46 51°12.272 2°48.338 251 14.8 239 10.4
2007-05-04 08:14:51 51°12.265 2°48.307 247.5 14.9 247 10.4
2007-05-04 08:14:56 51°12.253 2°48.279 247.8 15.4 236 10.4
2007-05-04 08:15:01 51°12.246 2°48.248 246.1 15 249 10.5
2007-05-04 08:15:06 51°12.234 2°48.22 248 15.2 237 10.5
2007-05-04 08:15:11 51°12.226 2°48.189 245.2 15.4 246 10.3
2007-05-04 08:15:16 51°12.217 2°48.159 246.8 14.8 245 10.5
2007-05-04 08:15:21 51°12.207 2°48.131 249.8 14.9 242 10.5
2007-05-04 08:15:26 51°12.199 2°48.1 246 15.1 245 10.5
2007-05-04 08:15:31 51°12.189 2°48.07 248.7 15.3 243 10.4
2007-05-04 08:15:36 51°12.18 2°48.039 247 15.1 246 10.6
2007-05-04 08:15:41 51°12.17 2°48.011 248.2 15 240 10.5
2007-05-04 08:15:46 51°12.162 2°47.981 246.7 14.9 246 10.7
2007-05-04 08:15:51 51°12.15 2°47.953 248 15.1 239 10.7
2007-05-04 08:15:56 51°12.143 2°47.922 245 15.1 247 10.6
2007-05-04 08:16:01 51°12.132 2°47.893 247.7 15.1 240 10.6
2007-05-04 08:16:06 51°12.124 2°47.862 247.1 14.9 245 10.7
2007-05-04 08:16:11 51°12.113 2°47.834 247.6 15.2 242 10.5
2007-05-04 08:16:16 51°12.105 2°47.804 245.4 15 245 10.5
2007-05-04 08:16:21 51°12.095 2°47.774 247.4 14.9 243 10.7
2007-05-04 08:16:26 51°12.085 2°47.745 247.5 15.1 242 10.5
2007-05-04 08:16:31 51°12.076 2°47.715 246.7 15 242 10.7
2007-05-04 08:16:36 51°12.066 2°47.686 248 15.1 243 10.7
2007-05-04 08:16:41 51°12.058 2°47.655 247 15 243 10.6
2007-05-04 08:16:46 51°12.048 2°47.626 248.1 15.1 244 10.5
2007-05-04 08:16:51 51°12.039 2°47.596 247 14.9 246 10.6
2007-05-04 08:16:56 51°12.031 2°47.566 248.1 14.9 245 10.5
2007-05-04 08:17:01 51°12.023 2°47.535 249.2 15.2 248 10.5
2007-05-04 08:17:06 51°12.016 2°47.504 251.6 15 251 10.5
2007-05-04 08:17:11 51°12.009 2°47.473 254.1 14.8 249 10.7
2007-05-04 08:17:16 51°12.003 2°47.442 255.3 15 252 10.8
2007-05-04 08:17:21 51°11.996 2°47.41 256.1 14.9 252 10.6